createdAt,value
2018-03-08T00:01:39.728Z,10.97
2018-03-08T00:03:45.556Z,10.20
2018-03-08T00:05:51.341Z,9.87
2018-03-08T00:07:57.082Z,10.60
2018-03-08T00:10:05.482Z,8.20
2018-03-08T00:12:11.253Z,8.93
2018-03-08T00:14:16.773Z,10.50
2018-03-08T00:16:22.036Z,9.37
2018-03-08T00:18:27.917Z,8.53
2018-03-08T00:20:33.463Z,9.90
2018-03-08T00:22:39.069Z,10.20
2018-03-08T00:24:44.417Z,8.57
2018-03-08T00:26:50.526Z,9.93
2018-03-08T00:28:56.644Z,8.57
2018-03-08T00:31:03.215Z,9.37
2018-03-08T00:33:09.593Z,10.90
2018-03-08T00:35:15.427Z,9.10
2018-03-08T00:37:21.141Z,7.77
2018-03-08T00:39:26.997Z,8.67
2018-03-08T00:41:33.181Z,9.10
2018-03-08T00:43:39.233Z,8.10
2018-03-08T00:45:45.908Z,8.37
2018-03-08T00:47:51.705Z,9.03
2018-03-08T00:49:57.874Z,7.90
2018-03-08T00:52:07.917Z,7.93
2018-03-08T00:54:14.582Z,8.97
2018-03-08T00:56:20.702Z,8.70
2018-03-08T00:58:26.845Z,7.17
2018-03-08T01:00:34.063Z,9.03
2018-03-08T01:02:39.376Z,8.57
2018-03-08T01:04:45.595Z,7.20
2018-03-08T01:06:51.373Z,9.00
2018-03-08T01:08:57.416Z,9.30
2018-03-08T01:11:04.924Z,7.57
2018-03-08T01:13:11.354Z,8.37
2018-03-08T01:15:17.170Z,7.70
2018-03-08T01:17:22.767Z,8.33
2018-03-08T01:19:29.815Z,8.53
2018-03-08T01:21:35.924Z,8.90
2018-03-08T01:23:41.663Z,7.60
2018-03-08T01:25:47.793Z,7.37
2018-03-08T01:27:53.769Z,8.07
2018-03-08T01:29:59.685Z,6.60
2018-03-08T01:32:06.730Z,6.53
2018-03-08T01:34:12.893Z,7.63
2018-03-08T01:36:27.016Z,7.30
2018-03-08T01:38:32.756Z,7.30
2018-03-08T01:40:38.686Z,6.53
2018-03-08T01:42:44.874Z,7.30
2018-03-08T01:44:51.107Z,7.37
2018-03-08T01:46:56.343Z,6.77
2018-03-08T01:49:03.877Z,6.77
2018-03-08T01:51:10.008Z,5.80
2018-03-08T01:53:16.135Z,6.90
2018-03-08T01:55:22.064Z,5.23
2018-03-08T01:57:27.764Z,6.27
2018-03-08T01:59:33.540Z,6.27
2018-03-08T02:01:39.814Z,7.20
2018-03-08T02:03:45.699Z,6.30
2018-03-08T02:05:51.399Z,6.87
2018-03-08T02:07:57.488Z,6.33
2018-03-08T02:10:06.726Z,7.30
2018-03-08T02:12:13.522Z,6.13
2018-03-08T02:14:19.147Z,6.67
2018-03-08T02:16:24.668Z,6.40
2018-03-08T02:18:30.097Z,7.17
2018-03-08T02:20:35.805Z,6.67
2018-03-08T02:22:41.894Z,6.67
2018-03-08T02:24:47.164Z,6.70
2018-03-08T02:26:53.856Z,6.70
2018-03-08T02:29:01.955Z,7.77
2018-03-08T02:31:07.919Z,6.33
2018-03-08T02:33:13.469Z,7.13
2018-03-08T02:35:19.076Z,6.10
2018-03-08T02:37:25.600Z,6.90
2018-03-08T02:39:30.837Z,6.63
2018-03-08T02:41:36.920Z,8.27
2018-03-08T02:43:42.256Z,8.47
2018-03-08T02:45:48.288Z,7.30
2018-03-08T02:47:54.304Z,7.57
2018-03-08T02:50:01.033Z,7.83
2018-03-08T02:52:08.326Z,7.30
2018-03-08T02:54:13.829Z,6.10
2018-03-08T02:56:20.077Z,6.67
2018-03-08T02:58:26.968Z,6.20
2018-03-08T03:00:33.250Z,6.80
2018-03-08T03:02:39.309Z,5.83
2018-03-08T03:04:55.884Z,6.90
2018-03-08T03:07:04.866Z,5.80
2018-03-08T03:09:11.300Z,7.60
2018-03-08T03:11:17.476Z,7.07
2018-03-08T03:13:23.563Z,6.07
2018-03-08T03:15:29.777Z,6.70
2018-03-08T03:17:35.490Z,7.90
2018-03-08T03:19:41.387Z,6.73
2018-03-08T03:21:46.743Z,8.13
2018-03-08T03:23:52.569Z,7.77
2018-03-08T03:25:58.543Z,7.13
2018-03-08T03:28:06.924Z,8.70
2018-03-08T03:30:12.923Z,8.30
2018-03-08T03:32:19.269Z,8.20
2018-03-08T03:34:25.363Z,9.33
2018-03-08T03:36:31.127Z,9.30
2018-03-08T03:38:37.052Z,9.40
2018-03-08T03:40:42.924Z,6.87
2018-03-08T03:42:49.623Z,8.67
2018-03-08T03:44:55.688Z,9.07
2018-03-08T03:47:04.396Z,6.80
2018-03-08T03:49:10.652Z,7.53
2018-03-08T03:51:15.969Z,9.47
2018-03-08T03:53:21.716Z,7.47
2018-03-08T03:55:28.236Z,9.33
2018-03-08T03:57:34.079Z,7.83
2018-03-08T03:59:40.784Z,11.40
2018-03-08T04:01:46.897Z,9.70
2018-03-08T04:03:52.843Z,10.43
2018-03-08T04:05:58.621Z,10.40
2018-03-08T04:08:06.523Z,11.50
2018-03-08T04:10:11.852Z,8.70
2018-03-08T04:12:17.889Z,11.60
2018-03-08T04:14:23.448Z,9.77
2018-03-08T04:16:29.148Z,8.83
2018-03-08T04:18:34.772Z,10.40
2018-03-08T04:20:40.622Z,10.67
2018-03-08T04:22:46.740Z,9.33
2018-03-08T04:24:52.021Z,8.83
2018-03-08T04:26:58.144Z,9.50
2018-03-08T04:29:05.964Z,10.83
2018-03-08T04:31:11.420Z,10.00
2018-03-08T04:33:17.452Z,10.83
2018-03-08T04:35:23.264Z,9.00
2018-03-08T04:37:29.264Z,10.63
2018-03-08T04:39:34.560Z,10.70
2018-03-08T04:41:40.710Z,11.50
2018-03-08T04:43:46.714Z,11.30
2018-03-08T04:45:52.136Z,11.67
2018-03-08T04:47:58.001Z,10.63
2018-03-08T04:50:07.030Z,11.17
2018-03-08T04:52:12.418Z,13.10
2018-03-08T04:54:19.142Z,11.33
2018-03-08T04:56:25.533Z,10.10
2018-03-08T04:58:31.104Z,12.50
2018-03-08T05:00:36.757Z,10.13
2018-03-08T05:02:42.161Z,12.83
2018-03-08T05:04:47.511Z,12.17
2018-03-08T05:06:52.912Z,11.30
2018-03-08T05:08:58.640Z,13.40
2018-03-08T05:11:06.803Z,12.03
2018-03-08T05:13:12.504Z,12.23
2018-03-08T05:15:17.831Z,13.20
2018-03-08T05:17:23.430Z,11.80
2018-03-08T05:19:29.422Z,11.63
2018-03-08T05:21:34.597Z,12.33
2018-03-08T05:23:40.723Z,13.33
2018-03-08T05:25:46.368Z,13.97
2018-03-08T05:27:51.821Z,12.47
2018-03-08T05:29:57.878Z,13.57
2018-03-08T05:32:06.516Z,11.70
2018-03-08T05:34:12.642Z,14.00
2018-03-08T05:36:18.123Z,16.23
2018-03-08T05:38:24.768Z,13.80
2018-03-08T05:40:30.022Z,13.10
2018-03-08T05:42:35.704Z,12.63
2018-03-08T05:44:40.948Z,14.77
2018-03-08T05:46:46.305Z,13.60
2018-03-08T05:48:52.329Z,14.90
2018-03-08T05:51:02.828Z,13.47
2018-03-08T05:53:08.783Z,10.80
2018-03-08T05:55:14.188Z,11.67
2018-03-08T05:57:21.776Z,13.17
2018-03-08T05:59:32.416Z,13.27
2018-03-08T06:01:41.561Z,12.43
2018-03-08T06:03:52.474Z,14.10
2018-03-08T06:05:59.487Z,11.60
2018-03-08T06:08:08.194Z,12.50
2018-03-08T06:10:16.928Z,13.17
2018-03-08T06:12:22.683Z,11.77
2018-03-08T06:14:28.599Z,11.87
2018-03-08T06:16:33.894Z,13.83
2018-03-08T06:18:39.732Z,13.47
2018-03-08T06:20:45.570Z,11.40
2018-03-08T06:22:52.893Z,11.30
2018-03-08T06:24:58.704Z,12.60
2018-03-08T06:27:04.484Z,14.90
2018-03-08T06:29:10.032Z,11.70
2018-03-08T06:31:15.886Z,14.40
2018-03-08T06:33:21.779Z,10.30
2018-03-08T06:35:27.044Z,11.13
2018-03-08T06:37:32.436Z,12.87
2018-03-08T06:39:38.087Z,10.30
2018-03-08T06:41:43.522Z,11.50
2018-03-08T06:43:49.915Z,10.40
2018-03-08T06:45:55.493Z,12.03
2018-03-08T06:48:01.562Z,46.63
2018-03-08T06:50:06.974Z,159.40
2018-03-08T06:52:13.656Z,193.50
2018-03-08T06:54:19.588Z,328.60
2018-03-08T06:56:25.140Z,335.43
2018-03-08T06:58:31.038Z,505.67
2018-03-08T07:00:37.489Z,399.90
2018-03-08T07:02:43.168Z,441.13
2018-03-08T07:04:49.998Z,424.17
2018-03-08T07:06:55.768Z,311.53
2018-03-08T07:09:02.972Z,347.77
2018-03-08T07:11:08.952Z,188.17
2018-03-08T07:13:15.095Z,146.77
2018-03-08T07:15:22.624Z,131.13
2018-03-08T07:17:28.385Z,64.37
2018-03-08T07:19:35.386Z,36.90
2018-03-08T07:21:41.262Z,255.47
2018-03-08T07:23:47.824Z,255.90
2018-03-08T07:25:54.564Z,263.70
2018-03-08T07:27:59.932Z,165.80
2018-03-08T07:30:09.545Z,122.07
2018-03-08T07:32:15.837Z,79.17
2018-03-08T07:34:23.746Z,71.03
2018-03-08T07:36:30.125Z,59.17
2018-03-08T07:38:36.288Z,49.40
2018-03-08T07:40:42.748Z,39.17
2018-03-08T07:42:48.176Z,31.00
2018-03-08T07:44:54.392Z,923.80
2018-03-08T07:47:01.863Z,343.60
2018-03-08T07:49:07.168Z,171.63
2018-03-08T07:51:12.576Z,303.53
2018-03-08T07:53:18.312Z,131.87
2018-03-08T07:55:23.846Z,99.17
2018-03-08T07:57:29.200Z,67.63
2018-03-08T07:59:34.845Z,43.87
2018-03-08T08:01:40.261Z,46.13
2018-03-08T08:03:50.238Z,31.30
2018-03-08T08:07:08.178Z,189.37
2018-03-08T08:09:13.708Z,497.70
2018-03-08T08:11:19.067Z,352.70
2018-03-08T08:13:25.273Z,323.40
2018-03-08T08:15:30.681Z,1999.90
2018-03-08T08:17:36.446Z,1999.90
2018-03-08T08:19:41.797Z,1707.17
2018-03-08T08:21:47.304Z,1515.17
2018-03-08T08:23:53.006Z,1397.20
2018-03-08T08:25:58.432Z,1041.73
2018-03-08T08:28:05.240Z,671.57
2018-03-08T08:30:11.053Z,356.63
2018-03-08T08:32:16.530Z,612.87
2018-03-08T08:34:22.525Z,791.73
2018-03-08T08:36:28.228Z,513.10
2018-03-08T08:38:34.941Z,1025.27
2018-03-08T08:40:40.435Z,387.95
2018-03-08T08:42:46.208Z,1999.90
2018-03-08T08:44:51.500Z,765.77
2018-03-08T08:46:56.914Z,232.50
2018-03-08T08:49:03.457Z,68.10
2018-03-08T08:51:09.542Z,23.23
2018-03-08T08:53:17.050Z,15.77
2018-03-08T08:55:23.416Z,9.63
2018-03-08T08:57:32.880Z,63.53
2018-03-08T08:59:38.289Z,237.77
2018-03-08T09:01:45.462Z,588.83
2018-03-08T09:03:51.275Z,182.20
2018-03-08T09:05:57.488Z,349.90
2018-03-08T09:08:04.694Z,192.53
2018-03-08T09:10:12.975Z,43.53
2018-03-08T09:12:18.194Z,16.87
2018-03-08T09:14:25.842Z,9.00
2018-03-08T09:16:31.103Z,7.60
2018-03-08T09:18:38.691Z,1999.90
2018-03-08T09:20:45.742Z,1029.40
2018-03-08T09:22:51.397Z,1567.60
2018-03-08T09:27:08.346Z,1214.17
2018-03-08T09:29:14.589Z,510.70
2018-03-08T09:31:20.049Z,841.23
2018-03-08T09:33:25.346Z,487.40
2018-03-08T09:35:30.646Z,493.93
2018-03-08T09:37:37.922Z,513.50
2018-03-08T09:39:43.649Z,306.17
2018-03-08T09:41:48.942Z,490.13
2018-03-08T09:43:55.117Z,1458.57
2018-03-08T09:46:01.849Z,497.07
2018-03-08T09:48:07.228Z,119.30
2018-03-08T09:50:12.530Z,650.07
2018-03-08T09:52:18.771Z,764.20
2018-03-08T09:54:24.088Z,322.83
2018-03-08T09:56:29.526Z,38.27
2018-03-08T09:58:35.121Z,57.23
2018-03-08T10:00:40.457Z,137.90
2018-03-08T10:02:46.720Z,295.73
2018-03-08T10:04:52.893Z,158.87
2018-03-08T10:06:58.627Z,25.23
2018-03-08T10:09:04.179Z,16.33
2018-03-08T10:11:09.708Z,1031.93
2018-03-08T10:13:15.036Z,426.93
2018-03-08T10:15:20.433Z,89.20
2018-03-08T10:17:26.254Z,732.77
2018-03-08T10:19:32.104Z,47.93
2018-03-08T10:21:44.675Z,15.07
2018-03-08T10:23:43.089Z,8.67
2018-03-08T10:25:48.313Z,7.87
2018-03-08T10:27:53.599Z,7.30
2018-03-08T10:29:59.867Z,7.30
2018-03-08T10:32:09.915Z,6.50
2018-03-08T10:34:15.182Z,9.20
2018-03-08T10:36:20.769Z,10.70
2018-03-08T10:38:26.141Z,7.40
2018-03-08T10:44:43.616Z,7.03
2018-03-08T10:46:48.805Z,11.93
2018-03-08T10:51:00.662Z,6.60
2018-03-08T10:53:07.137Z,7.50
2018-03-08T10:55:12.348Z,6.77
2018-03-08T10:57:17.941Z,48.63
2018-03-08T10:59:23.251Z,7.60
2018-03-08T11:01:28.758Z,6.70
2018-03-08T11:03:38.235Z,6.17
2018-03-08T11:05:47.804Z,482.07
2018-03-08T11:08:02.213Z,411.20
2018-03-08T11:10:08.711Z,221.67
2018-03-08T11:12:14.040Z,422.33
2018-03-08T11:14:19.295Z,179.10
2018-03-08T11:16:25.531Z,303.37
2018-03-08T11:18:31.285Z,264.00
2018-03-08T11:20:36.621Z,400.83
2018-03-08T11:22:42.562Z,289.23
2018-03-08T11:24:48.563Z,191.10
2018-03-08T11:26:53.888Z,47.37
2018-03-08T11:28:59.968Z,263.83
2018-03-08T11:31:08.746Z,47.77
2018-03-08T11:33:14.085Z,18.50
2018-03-08T11:35:19.417Z,19.47
2018-03-08T11:37:24.901Z,13.70
2018-03-08T11:39:31.120Z,123.77
2018-03-08T11:41:36.656Z,1999.90
2018-03-08T11:43:42.853Z,1793.70
2018-03-08T11:45:48.580Z,1357.10
2018-03-08T11:47:54.580Z,1521.47
2018-03-08T11:50:01.495Z,989.07
2018-03-08T11:52:06.737Z,675.37
2018-03-08T11:54:16.299Z,368.10
2018-03-08T11:56:21.782Z,130.97
2018-03-08T11:58:27.603Z,53.77
2018-03-08T12:00:34.096Z,641.40
2018-03-08T12:02:41.116Z,594.57
2018-03-08T12:04:46.614Z,1639.30
2018-03-08T12:06:51.903Z,541.40
2018-03-08T12:08:57.764Z,1999.90
2018-03-08T12:11:05.664Z,1028.73
2018-03-08T12:13:11.248Z,1181.40
2018-03-08T12:16:42.269Z,947.50
2018-03-08T12:18:47.574Z,994.30
2018-03-08T12:20:53.572Z,918.50
2018-03-08T12:22:59.089Z,421.77
2018-03-08T12:25:07.099Z,163.80
2018-03-08T12:27:12.653Z,65.30
2018-03-08T12:29:18.043Z,38.20
2018-03-08T12:31:23.343Z,1042.67
2018-03-08T12:33:29.085Z,527.80
2018-03-08T12:35:34.433Z,1155.77
2018-03-08T12:37:39.784Z,1999.90
2018-03-08T12:39:47.331Z,1094.20
2018-03-08T12:41:52.694Z,520.43
2018-03-08T12:43:58.128Z,573.30
2018-03-08T12:46:05.394Z,403.77
2018-03-08T12:48:10.736Z,118.23
2018-03-08T12:50:16.176Z,56.63
2018-03-08T12:52:21.734Z,26.77
2018-03-08T12:54:27.478Z,16.70
2018-03-08T12:56:32.714Z,10.23
2018-03-08T12:58:38.326Z,373.43
2018-03-08T13:00:43.659Z,108.33
2018-03-08T13:02:48.960Z,39.50
2018-03-08T13:04:54.485Z,112.47
2018-03-08T13:07:01.687Z,52.47
2018-03-08T13:09:07.262Z,196.67
2018-03-08T13:11:13.038Z,94.37
2018-03-08T13:13:18.619Z,28.07
2018-03-08T13:15:24.081Z,758.57
2018-03-08T13:17:29.686Z,219.53
2018-03-08T13:19:35.015Z,29.87
2018-03-08T13:21:40.289Z,15.23
2018-03-08T13:23:45.871Z,8.00
2018-03-08T13:25:52.231Z,8.70
2018-03-08T13:27:57.645Z,6.47
2018-03-08T13:30:05.437Z,107.53
2018-03-08T13:32:11.029Z,252.20
2018-03-08T13:34:17.368Z,675.90
2018-03-08T13:36:23.053Z,471.83
2018-03-08T13:38:28.491Z,136.27
2018-03-08T13:40:33.981Z,49.03
2018-03-08T13:42:40.077Z,14.43
2018-03-08T13:44:45.417Z,8.17
2018-03-08T13:46:50.731Z,362.00
2018-03-08T13:48:56.572Z,921.60
2018-03-08T13:51:05.941Z,1088.53
2018-03-08T13:53:11.217Z,1999.90
2018-03-08T13:55:17.513Z,779.27
2018-03-08T13:57:22.804Z,601.83
2018-03-08T13:59:28.115Z,781.30
2018-03-08T14:01:33.912Z,1999.90
2018-03-08T14:03:39.298Z,1051.27
2018-03-08T14:05:44.676Z,877.07
2018-03-08T14:07:50.307Z,628.63
2018-03-08T14:09:58.609Z,486.27
2018-03-08T14:12:06.315Z,175.73
2018-03-08T14:14:12.165Z,70.00
2018-03-08T14:16:17.977Z,33.53
2018-03-08T14:18:28.340Z,10.47
2018-03-08T14:20:39.516Z,7.20
2018-03-08T14:22:48.545Z,7.80
2018-03-08T14:24:53.823Z,11.83
2018-03-08T14:26:59.423Z,5.13
2018-03-08T14:29:05.874Z,15.60
2018-03-08T14:31:11.168Z,5.27
2018-03-08T14:33:16.771Z,5.00
2018-03-08T14:35:22.084Z,3.80
2018-03-08T14:37:27.400Z,3.70
2018-03-08T14:39:33.178Z,3.87
2018-03-08T14:41:39.054Z,4.37
2018-03-08T14:43:44.542Z,3.80
2018-03-08T14:45:50.520Z,3.90
2018-03-08T14:47:56.156Z,3.10
2018-03-08T14:50:03.406Z,3.53
2018-03-08T14:52:09.215Z,3.57
2018-03-08T14:54:14.518Z,3.13
2018-03-08T14:56:22.910Z,3.40
2018-03-08T14:58:29.096Z,3.53
2018-03-08T15:00:34.637Z,2.97
2018-03-08T15:02:39.989Z,2.80
2018-03-08T15:04:45.768Z,2.97
2018-03-08T15:06:51.138Z,2.90
2018-03-08T15:08:56.409Z,2.80
2018-03-08T15:11:05.154Z,3.00
2018-03-08T15:13:10.500Z,2.97
2018-03-08T15:15:15.732Z,2.80
2018-03-08T15:17:21.453Z,3.63
2018-03-08T15:19:26.773Z,5.27
2018-03-08T15:21:32.044Z,3.20
2018-03-08T15:23:37.636Z,3.10
2018-03-08T15:25:43.455Z,3.50
2018-03-08T15:27:49.462Z,3.23
2018-03-08T15:29:55.209Z,3.10
2018-03-08T15:32:01.272Z,3.13
2018-03-08T15:34:07.426Z,3.13
2018-03-08T15:36:13.165Z,2.70
2018-03-08T15:38:23.080Z,2.60
2018-03-08T15:40:29.819Z,3.30
2018-03-08T15:42:35.737Z,4.80
2018-03-08T15:44:41.090Z,3.60
2018-03-08T15:46:46.473Z,4.50
2018-03-08T15:48:52.114Z,3.93
2018-03-08T15:50:57.441Z,3.70
2018-03-08T15:53:02.814Z,3.57
2018-03-08T15:55:08.543Z,3.43
2018-03-08T15:57:13.846Z,3.77
2018-03-08T15:59:19.155Z,4.63
2018-03-08T16:01:24.776Z,3.93
2018-03-08T16:03:30.679Z,8.07
2018-03-08T16:05:36.168Z,4.97
2018-03-08T16:07:42.641Z,6.83
2018-03-08T16:09:57.188Z,4.83
2018-03-08T16:12:05.482Z,4.63
2018-03-08T16:14:11.868Z,5.53
2018-03-08T16:16:18.221Z,4.90
2018-03-08T16:18:24.224Z,4.17
2018-03-08T16:20:30.056Z,7.53
2018-03-08T16:22:35.770Z,6.93
2018-03-08T16:24:41.528Z,4.30
2018-03-08T16:26:47.240Z,5.33
2018-03-08T16:28:57.019Z,7.00
2018-03-08T16:31:03.722Z,5.73
2018-03-08T16:33:09.379Z,4.10
2018-03-08T16:35:14.864Z,4.77
2018-03-08T16:37:20.192Z,4.90
2018-03-08T16:39:26.819Z,4.37
2018-03-08T16:41:33.025Z,4.80
2018-03-08T16:43:38.783Z,5.30
2018-03-08T16:45:48.924Z,4.67
2018-03-08T16:47:54.510Z,4.73
2018-03-08T16:50:00.304Z,5.00
2018-03-08T16:52:06.309Z,4.87
2018-03-08T16:54:11.927Z,4.40
2018-03-08T16:56:17.437Z,4.37
2018-03-08T16:58:23.515Z,4.50
2018-03-08T17:00:29.745Z,4.93
2018-03-08T17:02:36.276Z,4.63
2018-03-08T17:04:42.552Z,5.30
2018-03-08T17:06:48.078Z,4.03
2018-03-08T17:08:53.920Z,4.50
2018-03-08T17:11:01.308Z,3.90
2018-03-08T17:13:06.822Z,4.77
2018-03-08T17:15:14.118Z,4.70
2018-03-08T17:17:23.465Z,4.63
2018-03-08T17:19:29.040Z,4.63
2018-03-08T17:21:36.913Z,6.53
2018-03-08T17:23:42.737Z,3.70
2018-03-08T17:25:48.591Z,4.20
2018-03-08T17:27:54.713Z,5.47
2018-03-08T17:30:00.928Z,5.73
2018-03-08T17:32:06.456Z,4.60
2018-03-08T17:34:13.160Z,4.87
2018-03-08T17:36:21.331Z,4.90
2018-03-08T17:38:29.598Z,4.90
2018-03-08T17:40:37.334Z,6.07
2018-03-08T17:42:43.234Z,5.77
2018-03-08T17:44:49.866Z,6.63
2018-03-08T17:46:59.434Z,5.47
2018-03-08T17:49:05.318Z,6.10
2018-03-08T17:51:10.792Z,5.93
2018-03-08T17:53:16.302Z,6.70
2018-03-08T17:55:23.387Z,8.13
2018-03-08T17:57:29.500Z,6.83
2018-03-08T17:59:36.563Z,6.30
2018-03-08T18:01:42.456Z,6.63
2018-03-08T18:03:49.073Z,5.50
2018-03-08T18:05:54.504Z,7.40
2018-03-08T18:08:00.850Z,5.83
2018-03-08T18:10:07.992Z,6.77
2018-03-08T18:12:13.844Z,6.07
2018-03-08T18:14:21.035Z,7.70
2018-03-08T18:16:26.679Z,6.27
2018-03-08T18:18:33.816Z,6.47
2018-03-08T18:20:39.663Z,6.97
2018-03-08T18:22:45.311Z,6.67
2018-03-08T18:24:51.839Z,5.87
2018-03-08T18:26:57.561Z,7.80
2018-03-08T18:29:11.369Z,6.00
2018-03-08T18:31:17.241Z,6.87
2018-03-08T18:33:23.090Z,6.30
2018-03-08T18:35:28.665Z,6.20
2018-03-08T18:39:43.909Z,6.67
2018-03-08T18:41:51.468Z,5.63
2018-03-08T18:43:57.710Z,6.03
2018-03-08T18:46:07.508Z,8.20
2018-03-08T18:48:14.824Z,5.83
2018-03-08T18:50:20.723Z,6.40
2018-03-08T18:52:26.648Z,6.73
2018-03-08T18:54:32.060Z,5.60
2018-03-08T18:56:38.178Z,5.57
2018-03-08T18:58:43.801Z,8.17
2018-03-08T19:00:49.253Z,5.07
2018-03-08T19:02:55.038Z,6.17
2018-03-08T19:05:01.851Z,5.10
2018-03-08T19:07:07.592Z,5.63
2018-03-08T19:09:13.153Z,6.03
2018-03-08T19:11:18.964Z,5.10
2018-03-08T19:13:24.471Z,5.37
2018-03-08T19:15:29.915Z,6.27
2018-03-08T19:17:35.814Z,6.97
2018-03-08T19:19:41.268Z,5.10
2018-03-08T19:21:46.689Z,5.00
2018-03-08T19:23:52.248Z,6.53
2018-03-08T19:25:57.820Z,5.30
2018-03-08T19:28:03.226Z,4.90
2018-03-08T19:30:09.407Z,5.10
2018-03-08T19:32:15.736Z,4.60
2018-03-08T19:34:20.992Z,4.60
2018-03-08T19:36:26.668Z,6.00
2018-03-08T19:38:32.621Z,5.70
2018-03-08T19:40:38.317Z,9.90
2018-03-08T19:42:44.364Z,4.93
2018-03-08T19:44:49.946Z,5.20
2018-03-08T19:46:55.472Z,4.80
2018-03-08T19:49:01.100Z,5.73
2018-03-08T19:51:07.309Z,4.80
2018-03-08T19:53:13.560Z,4.80
2018-03-08T19:55:19.174Z,5.33
2018-03-08T19:57:27.274Z,6.00
2018-03-08T19:59:32.699Z,6.90
2018-03-08T20:01:38.995Z,4.67
2018-03-08T20:03:44.468Z,4.67
2018-03-08T20:05:49.749Z,4.23
2018-03-08T20:07:55.496Z,7.13
2018-03-08T20:10:05.966Z,4.17
2018-03-08T20:12:12.162Z,6.23
2018-03-08T20:14:20.536Z,4.03
2018-03-08T20:16:29.321Z,4.80
2018-03-08T20:18:36.244Z,4.30
2018-03-08T20:20:42.663Z,3.60
2018-03-08T20:22:48.051Z,4.40
2018-03-08T20:24:53.331Z,3.83
2018-03-08T20:26:59.394Z,5.80
2018-03-08T20:29:04.840Z,3.10
2018-03-08T20:31:10.116Z,3.67
2018-03-08T20:33:15.677Z,3.57
2018-03-08T20:35:21.550Z,4.03
2018-03-08T20:37:26.921Z,4.97
2018-03-08T20:39:32.643Z,2.83
2018-03-08T20:41:38.813Z,2.10
2018-03-08T20:43:44.434Z,2.10
2018-03-08T20:45:50.736Z,4.63
2018-03-08T20:47:56.081Z,3.17
2018-03-08T20:50:01.445Z,2.60
2018-03-08T20:52:07.185Z,1.80
2018-03-08T20:54:12.489Z,4.67
2018-03-08T20:56:17.879Z,1.80
2018-03-08T20:58:23.506Z,1.53
2018-03-08T21:00:28.804Z,2.03
2018-03-08T21:02:34.202Z,1.70
2018-03-08T21:04:39.777Z,1.67
2018-03-08T21:06:45.037Z,2.03
2018-03-08T21:08:50.599Z,1.40
2018-03-08T21:10:56.956Z,1.30
2018-03-08T21:13:04.239Z,2.80
2018-03-08T21:15:09.884Z,1.27
2018-03-08T21:17:15.648Z,1.40
2018-03-08T21:19:21.078Z,1.57
2018-03-08T21:21:26.573Z,1.40
2018-03-08T21:23:36.931Z,3.07
2018-03-08T21:25:42.468Z,1.00
2018-03-08T21:27:47.921Z,1.30
2018-03-08T21:29:59.484Z,1.30
2018-03-08T21:32:05.357Z,1.07
2018-03-08T21:34:10.739Z,2.13
2018-03-08T21:36:16.411Z,1.40
2018-03-08T21:38:21.697Z,1.40
2018-03-08T21:40:28.153Z,1.13
2018-03-08T21:42:33.704Z,0.80
2018-03-08T21:44:39.031Z,1.00
2018-03-08T21:46:44.469Z,1.20
2018-03-08T21:48:50.107Z,1.13
2018-03-08T21:50:55.507Z,2.40
2018-03-08T21:53:00.803Z,483.63
2018-03-08T21:55:09.288Z,338.37
2018-03-08T21:57:14.555Z,289.60
2018-03-08T21:59:19.914Z,115.37
2018-03-08T22:01:25.469Z,25.13
2018-03-08T22:03:30.807Z,4.40
2018-03-08T22:05:36.650Z,34.70
2018-03-08T22:07:42.233Z,247.00
2018-03-08T22:09:47.779Z,769.23
2018-03-08T22:11:53.281Z,526.27
2018-03-08T22:14:01.829Z,471.00
2018-03-08T22:16:07.815Z,656.80
2018-03-08T22:18:13.120Z,592.27
2018-03-08T22:20:19.144Z,294.47
2018-03-08T22:22:25.693Z,249.70
2018-03-08T22:24:32.551Z,138.40
2018-03-08T22:26:38.128Z,177.07
2018-03-08T22:28:43.390Z,339.50
2018-03-08T22:30:50.102Z,253.50
2018-03-08T22:32:55.657Z,146.77
2018-03-08T22:35:02.176Z,94.07
2018-03-08T22:37:07.550Z,262.17
2018-03-08T22:39:13.225Z,676.80
2018-03-08T22:41:18.495Z,645.60
2018-03-08T22:43:26.706Z,584.67
2018-03-08T22:45:33.581Z,230.90
2018-03-08T22:47:38.812Z,496.07
2018-03-08T22:49:44.532Z,690.53
2018-03-08T22:51:50.030Z,454.20
2018-03-08T22:53:56.300Z,187.03
2018-03-08T22:56:03.605Z,62.63
2018-03-08T22:58:09.238Z,21.43
2018-03-08T23:00:14.595Z,8.63
2018-03-08T23:02:23.817Z,9.10
2018-03-08T23:04:29.499Z,2.87
2018-03-08T23:06:35.560Z,3.20
2018-03-08T23:08:40.883Z,2.60
2018-03-08T23:10:46.670Z,2.60
2018-03-08T23:12:52.017Z,1.30
2018-03-08T23:14:57.308Z,2.70
2018-03-08T23:17:05.163Z,2.23
2018-03-08T23:19:10.464Z,3.23
2018-03-08T23:21:15.976Z,1.10
2018-03-08T23:23:22.058Z,1.37
2018-03-08T23:25:27.425Z,1.00
2018-03-08T23:27:32.849Z,2.50
2018-03-08T23:29:38.691Z,1.53
2018-03-08T23:31:44.764Z,2.10
2018-03-08T23:33:50.140Z,0.93
2018-03-08T23:35:56.525Z,1.10
2018-03-08T23:38:03.544Z,1.83
2018-03-08T23:40:09.619Z,1.30
2018-03-08T23:42:15.956Z,1.10
2018-03-08T23:44:21.928Z,1.37
2018-03-08T23:46:27.888Z,1.20
2018-03-08T23:48:33.576Z,3.90
2018-03-08T23:50:38.876Z,1.90
2018-03-08T23:52:44.431Z,1.10
2018-03-08T23:54:50.486Z,3.90
2018-03-08T23:56:55.926Z,2.00
2018-03-08T23:59:03.606Z,1.90
